Time;durP1;ratioP1;P1;durP2;ratioP2;P2;SDS_P1;SDS_P2;PMS_P1;PMS_P2;Temp;Humidity;BMP_temperature;BMP_pressure;BME280_temperature;BME280_humidity;BME280_pressure;Samples;Min_cycle;Max_cycle;Signal;HPM_P1;HPM_P2
2023/12/26 00:00:13;;;;;;;15.65;10.55;;;;;;;8.88;68.05;99693.88;4448605;32;20164;-75
2023/12/26 00:02:43;;;;;;;13.75;10.82;;;;;;;8.60;68.64;99693.88;4446478;32;20164;-75
2023/12/26 00:05:12;;;;;;;19.40;11.10;;;;;;;8.43;69.20;99691.44;4451309;32;20163;-75
2023/12/26 00:07:45;;;;;;;13.15;10.00;;;;;;;8.55;68.68;99698.63;4451300;32;20174;-75
2023/12/26 00:10:15;;;;;;;14.77;9.98;;;;;;;8.49;68.88;99692.88;4451152;32;20164;-75
2023/12/26 00:12:45;;;;;;;13.30;10.68;;;;;;;8.74;67.86;99700.06;4451310;32;20156;-76
2023/12/26 00:15:15;;;;;;;14.35;9.93;;;;;;;8.96;67.39;99704.78;4451303;32;20175;-75
2023/12/26 00:17:44;;;;;;;13.88;9.60;;;;;;;8.85;67.59;99694.91;4451542;32;20148;-75
2023/12/26 00:20:14;;;;;;;11.50;10.07;;;;;;;8.65;68.36;99693.56;4451234;32;20159;-75
2023/12/26 00:22:45;;;;;;;14.95;9.40;;;;;;;8.74;68.06;99702.69;4451169;32;20168;-75
2023/12/26 00:25:14;;;;;;;20.00;9.73;;;;;;;8.83;67.87;99699.47;4451316;32;20618;-75
2023/12/26 00:27:44;;;;;;;20.02;9.75;;;;;;;8.93;67.54;99705.84;4451155;32;20179;-75
2023/12/26 00:30:13;;;;;;;14.50;9.40;;;;;;;8.89;67.63;99703.50;4450895;32;20175;-75
2023/12/26 00:32:43;;;;;;;19.23;11.02;;;;;;;9.01;67.32;99708.81;4434787;32;20415;-75
2023/12/26 00:35:13;;;;;;;12.07;8.75;;;;;;;9.08;66.85;99704.00;4450198;32;20459;-75
2023/12/26 00:37:44;;;;;;;12.73;8.38;;;;;;;8.71;67.79;99702.88;4451232;32;20155;-75
2023/12/26 00:40:14;;;;;;;18.05;8.73;;;;;;;8.68;67.71;99706.59;4449140;32;20193;-75
2023/12/26 00:42:44;;;;;;;14.25;8.73;;;;;;;9.05;66.70;99701.53;4446904;32;20163;-75
2023/12/26 00:45:14;;;;;;;12.05;8.63;;;;;;;8.98;66.97;99693.16;4451000;32;20158;-75
2023/12/26 00:47:43;;;;;;;12.75;8.30;;;;;;;8.99;66.97;99700.16;4451304;32;20136;-75
2023/12/26 00:50:13;;;;;;;12.20;8.43;;;;;;;8.75;67.67;99693.81;4449285;32;20451;-75
2023/12/26 00:52:44;;;;;;;13.50;8.73;;;;;;;8.73;68.23;99699.22;4446774;32;20159;-75
2023/12/26 00:55:13;;;;;;;17.37;10.00;;;;;;;8.47;69.21;99700.88;4450848;32;20532;-75
2023/12/26 00:57:43;;;;;;;13.82;8.32;;;;;;;8.61;68.74;99711.41;4450827;32;20160;-75
2023/12/26 01:00:13;;;;;;;12.00;8.95;;;;;;;9.01;67.52;99695.59;4434912;32;20156;-75
2023/12/26 01:02:42;;;;;;;14.85;8.95;;;;;;;9.02;67.34;99693.81;4446900;32;20176;-75
2023/12/26 01:05:11;;;;;;;11.38;9.27;;;;;;;8.89;67.86;99692.94;4450791;32;20164;-75
2023/12/26 01:07:41;;;;;;;12.02;8.30;;;;;;;9.00;67.38;99682.50;4450617;32;20519;-75
2023/12/26 01:10:11;;;;;;;13.75;8.60;;;;;;;8.75;68.28;99667.41;4449117;32;20429;-75
2023/12/26 01:12:40;;;;;;;13.10;9.25;;;;;;;9.11;66.93;99665.00;4446242;32;20164;-75
2023/12/26 01:15:11;;;;;;;12.48;8.95;;;;;;;8.85;67.60;99689.63;4450420;32;20219;-75
2023/12/26 01:17:41;;;;;;;15.80;10.48;;;;;;;8.98;67.21;99698.44;4450946;32;20143;-75
2023/12/26 01:20:11;;;;;;;17.30;9.93;;;;;;;8.84;67.76;99694.09;4448843;32;20168;-75
2023/12/26 01:22:42;;;;;;;16.62;9.43;;;;;;;9.05;67.15;99688.31;4446137;32;20521;-75
2023/12/26 01:25:14;;;;;;;15.10;9.43;;;;;;;9.34;65.82;99691.66;4436148;32;20146;-75
2023/12/26 01:27:44;;;;;;;17.50;9.43;;;;;;;8.89;67.42;99690.28;4450488;32;20163;-75
2023/12/26 01:30:13;;;;;;;13.60;9.48;;;;;;;8.88;67.34;99689.44;4448728;32;20159;-75
2023/12/26 01:32:43;;;;;;;13.30;9.45;;;;;;;8.92;67.10;99696.22;4446635;32;20156;-75
2023/12/26 01:35:14;;;;;;;15.65;9.70;;;;;;;8.87;66.73;99693.03;4450231;32;20152;-75
2023/12/26 01:37:43;;;;;;;20.02;11.57;;;;;;;8.88;66.52;99694.72;4450336;32;20449;-75
2023/12/26 01:40:14;;;;;;;20.42;10.60;;;;;;;8.83;66.49;99695.03;4433498;32;20192;-75
2023/12/26 01:42:46;;;;;;;16.90;11.38;;;;;;;8.76;66.51;99692.88;4446221;32;20155;-75
2023/12/26 01:45:16;;;;;;;20.73;11.95;;;;;;;8.76;66.52;99690.25;4450138;32;20151;-75
2023/12/26 01:47:51;;;;;;;16.75;11.25;;;;;;;8.82;65.91;99695.13;4450518;32;20152;-75
2023/12/26 01:50:21;;;;;;;15.23;11.00;;;;;;;8.88;65.81;99701.81;4447357;32;20171;-75
2023/12/26 01:52:51;;;;;;;19.60;11.25;;;;;;;8.65;66.34;99709.44;4446857;32;20156;-75
2023/12/26 01:55:23;;;;;;;17.83;14.13;;;;;;;8.71;66.10;99700.25;4449964;32;20144;-75
2023/12/26 01:57:54;;;;;;;17.65;10.95;;;;;;;8.83;65.34;99699.47;4450040;32;20163;-75
2023/12/26 02:00:29;;;;;;;17.83;9.85;;;;;;;8.78;65.46;99685.69;4440847;32;20168;-75
2023/12/26 02:02:59;;;;;;;16.73;10.05;;;;;;;8.52;66.25;99692.69;4447562;32;20153;-75
2023/12/26 02:05:29;;;;;;;15.95;10.18;;;;;;;8.12;67.72;99687.25;4435834;32;20479;-75
2023/12/26 02:08:04;;;;;;;13.05;10.18;;;;;;;8.71;65.62;99690.56;4449872;32;20156;-75
2023/12/26 02:10:48;;;;;;;14.75;10.63;;;;;;;8.09;68.25;99690.91;4444474;32;20168;-75
2023/12/26 02:13:17;;;;;;;17.95;11.93;;;;;;;7.93;69.12;99686.69;4449444;32;20160;-75
2023/12/26 02:15:52;;;;;;;18.50;11.95;;;;;;;7.99;68.81;99684.50;4449810;32;20152;-75
2023/12/26 02:18:22;;;;;;;17.65;11.40;;;;;;;8.13;68.00;99684.50;4435617;32;20185;-75
2023/12/26 02:20:52;;;;;;;15.63;11.35;;;;;;;7.77;69.22;99671.81;4449416;32;20187;-75
2023/12/26 02:23:26;;;;;;;15.98;9.55;;;;;;;8.01;68.58;99673.87;4449988;32;20168;-75
2023/12/26 02:25:59;;;;;;;17.45;11.77;;;;;;;8.24;67.60;99677.72;4450534;32;20152;-75
2023/12/26 02:28:28;;;;;;;;;;;;;;;8.09;67.65;99675.09;4452366;32;20160;-75
2023/12/26 02:30:59;;;;;;;17.10;11.40;;;;;;;7.77;68.66;99686.78;4451910;32;20062;-75
2023/12/26 02:33:30;;;;;;;15.52;10.00;;;;;;;7.55;69.24;99685.44;4452158;32;20550;-75
2023/12/26 02:36:01;;;;;;;16.55;10.82;;;;;;;7.96;67.91;99684.72;4451891;32;20199;-75
2023/12/26 02:38:31;;;;;;;16.98;9.98;;;;;;;7.29;69.57;99680.91;4452164;32;20459;-75
2023/12/26 02:41:01;;;;;;;15.95;10.32;;;;;;;7.39;69.69;99682.03;4451806;32;20179;-75
2023/12/26 02:43:30;;;;;;;17.65;10.45;;;;;;;7.36;69.77;99676.94;4451820;32;20179;-75
2023/12/26 02:45:59;;;;;;;17.55;11.20;;;;;;;7.36;69.82;99672.53;4451766;32;20156;-75
2023/12/26 02:48:29;;;;;;;14.05;9.57;;;;;;;7.34;69.99;99676.19;4451792;32;20176;-75
2023/12/26 02:50:58;;;;;;;14.07;9.82;;;;;;;7.61;69.26;99677.16;4451643;32;20183;-75
2023/12/26 02:53:28;;;;;;;12.65;10.20;;;;;;;7.52;69.62;99671.59;4435471;32;20180;-75
2023/12/26 02:55:57;;;;;;;19.48;10.15;;;;;;;7.68;69.16;99682.06;4449363;32;20164;-75
2023/12/26 02:58:29;;;;;;;17.62;11.15;;;;;;;7.49;70.35;99688.47;4451798;32;20156;-75
2023/12/26 03:00:58;;;;;;;16.02;9.95;;;;;;;7.73;69.41;99683.50;4437277;32;20463;-75
2023/12/26 03:03:27;;;;;;;18.90;10.30;;;;;;;7.59;70.16;99683.47;4451793;32;20168;-75
2023/12/26 03:05:57;;;;;;;15.25;9.07;;;;;;;7.61;70.39;99685.09;4434952;32;20334;-75
2023/12/26 03:08:28;;;;;;;17.45;9.85;;;;;;;7.84;69.40;99667.00;4452086;32;20156;-75
2023/12/26 03:10:57;;;;;;;13.75;9.60;;;;;;;7.50;70.72;99673.47;4445325;32;20156;-75
2023/12/26 03:13:28;;;;;;;18.65;9.13;;;;;;;7.64;69.92;99677.00;4451648;32;20156;-75
2023/12/26 03:16:00;;;;;;;15.05;8.43;;;;;;;7.86;68.76;99670.38;4451653;32;20179;-75
2023/12/26 03:18:29;;;;;;;13.32;8.25;;;;;;;7.87;68.76;99672.06;4451674;32;20176;-75
2023/12/26 03:20:59;;;;;;;14.05;8.50;;;;;;;7.86;68.48;99663.31;4445194;32;20184;-75
2023/12/26 03:23:29;;;;;;;14.20;9.13;;;;;;;7.59;68.84;99657.94;4451860;32;20595;-75
2023/12/26 03:26:00;;;;;;;15.90;8.68;;;;;;;7.81;68.43;99657.50;4451530;32;20160;-75
2023/12/26 03:28:32;;;;;;;16.10;9.25;;;;;;;7.61;69.16;99653.44;4451510;32;20515;-75
2023/12/26 03:31:02;;;;;;;17.20;9.50;;;;;;;7.51;69.51;99659.34;4445171;32;20524;-75
2023/12/26 03:33:32;;;;;;;16.83;9.00;;;;;;;7.26;70.14;99659.97;4451467;32;20180;-75
2023/12/26 03:36:02;;;;;;;17.15;9.18;;;;;;;7.31;70.20;99652.66;4451354;32;20449;-75
2023/12/26 03:38:32;;;;;;;16.62;9.40;;;;;;;7.38;69.81;99651.34;4451753;32;20163;-75
2023/12/26 03:41:02;;;;;;;15.98;8.48;;;;;;;7.35;70.10;99643.63;4445163;32;20183;-75
2023/12/26 03:43:32;;;;;;;15.18;9.85;;;;;;;7.23;70.23;99633.81;4451488;32;20179;-75
2023/12/26 03:46:02;;;;;;;11.98;8.93;;;;;;;7.12;70.71;99629.16;4451468;32;20168;-75
2023/12/26 03:48:31;;;;;;;14.80;8.82;;;;;;;7.28;70.19;99624.66;4451441;32;20199;-75
2023/12/26 03:51:01;;;;;;;15.88;10.05;;;;;;;7.36;70.02;99629.50;4445086;32;20164;-75
2023/12/26 03:53:31;;;;;;;16.70;9.30;;;;;;;7.35;69.90;99622.53;4451724;32;20532;-75
2023/12/26 03:56:00;;;;;;;18.15;9.32;;;;;;;7.58;69.25;99618.50;4451373;32;20147;-75
2023/12/26 03:58:31;;;;;;;19.05;10.38;;;;;;;7.72;68.23;99621.16;4451409;32;20155;-75
2023/12/26 04:01:02;;;;;;;15.52;9.70;;;;;;;7.58;69.26;99619.34;4444904;32;20165;-75
2023/12/26 04:03:33;;;;;;;14.43;9.00;;;;;;;7.51;70.49;99612.75;4451585;32;20160;-75
2023/12/26 04:06:02;;;;;;;17.73;10.15;;;;;;;7.13;72.07;99615.91;4451254;32;20168;-75
2023/12/26 04:08:33;;;;;;;16.70;9.75;;;;;;;7.24;72.15;99617.88;4451718;32;20504;-75
2023/12/26 04:11:10;;;;;;;23.23;11.38;;;;;;;7.60;71.00;99627.16;4445007;32;20536;-75
2023/12/26 04:13:40;;;;;;;18.95;10.82;;;;;;;7.51;71.43;99628.56;4451418;32;20164;-75
2023/12/26 04:16:11;;;;;;;16.40;10.80;;;;;;;7.72;70.86;99622.91;4451385;32;20159;-75
2023/12/26 04:18:40;;;;;;;18.98;10.00;;;;;;;7.94;70.08;99611.87;4451205;32;20179;-75
2023/12/26 04:21:10;;;;;;;16.58;8.82;;;;;;;7.77;70.25;99613.78;4444825;32;21184;-75
2023/12/26 04:23:40;;;;;;;19.45;9.45;;;;;;;7.77;69.77;99618.22;4451453;32;20180;-75
2023/12/26 04:26:09;;;;;;;17.92;9.48;;;;;;;7.08;71.40;99620.59;4451242;32;20524;-75
2023/12/26 04:28:39;;;;;;;11.65;9.70;;;;;;;7.53;69.89;99618.78;4451143;32;20155;-75
2023/12/26 04:31:08;;;;;;;14.00;9.77;;;;;;;7.45;69.40;99622.84;4444809;32;20168;-75
2023/12/26 04:33:40;;;;;;;25.65;11.48;;;;;;;7.36;69.25;99629.50;4451274;32;20430;-75
2023/12/26 04:36:09;;;;;;;17.00;10.27;;;;;;;7.52;69.28;99640.81;4450972;32;20143;-75
2023/12/26 04:38:39;;;;;;;17.58;10.93;;;;;;;7.78;67.37;99630.44;4451271;32;20159;-75
2023/12/26 04:41:11;;;;;;;14.98;10.40;;;;;;;7.53;67.11;99636.41;4444616;32;20184;-75
2023/12/26 04:43:40;;;;;;;15.65;10.18;;;;;;;7.10;68.08;99617.88;4451144;32;20156;-75
2023/12/26 04:46:20;;;;;;;15.23;11.18;;;;;;;7.17;67.93;99621.84;4450987;32;20156;-75
2023/12/26 04:48:53;;;;;;;14.95;10.57;;;;;;;7.04;68.33;99640.16;4436011;32;20440;-75
2023/12/26 04:51:22;;;;;;;16.98;10.32;;;;;;;7.00;68.83;99637.78;4444527;32;20712;-75
2023/12/26 04:53:52;;;;;;;12.35;9.02;;;;;;;7.02;68.11;99649.94;4450813;32;20148;-75
2023/12/26 04:56:21;;;;;;;14.43;10.23;;;;;;;7.06;67.58;99651.47;4451220;32;20148;-75
2023/12/26 04:58:52;;;;;;;18.48;11.95;;;;;;;6.82;68.07;99655.53;4450833;32;20175;-75
2023/12/26 05:01:24;;;;;;;19.85;10.57;;;;;;;6.63;68.99;99666.25;4450651;32;20144;-75
2023/12/26 05:03:58;;;;;;;16.87;11.23;;;;;;;6.44;70.28;99653.28;4450828;32;20159;-75
2023/12/26 05:06:28;;;;;;;14.15;10.00;;;;;;;6.76;69.25;99648.81;4450662;32;20163;-75
2023/12/26 05:08:57;;;;;;;18.02;13.00;;;;;;;6.78;69.06;99662.75;4450843;32;20151;-75
2023/12/26 05:11:27;;;;;;;14.25;12.77;;;;;;;6.79;68.16;99655.69;4451004;32;20160;-75
2023/12/26 05:13:56;;;;;;;17.35;11.65;;;;;;;6.73;68.10;99666.56;4450647;32;20155;-75
2023/12/26 05:16:30;;;;;;;18.15;11.82;;;;;;;6.74;67.87;99674.41;4450729;32;20179;-75
2023/12/26 05:19:00;;;;;;;18.50;11.43;;;;;;;6.62;67.80;99659.31;4450689;32;20170;-75
2023/12/26 05:21:30;;;;;;;15.43;10.18;;;;;;;6.67;67.91;99669.56;4450488;32;20152;-75
2023/12/26 05:23:59;;;;;;;14.38;10.43;;;;;;;6.55;67.96;99660.59;4434241;32;20175;-75
2023/12/26 05:26:29;;;;;;;18.90;10.68;;;;;;;6.53;68.64;99650.16;4450705;32;20183;-75
2023/12/26 05:28:58;;;;;;;16.40;9.43;;;;;;;6.63;68.01;99653.94;4450459;32;20156;-75
2023/12/26 05:31:28;;;;;;;19.30;10.93;;;;;;;6.84;67.99;99658.91;4444107;32;20167;-75
2023/12/26 05:33:57;;;;;;;12.30;9.73;;;;;;;6.62;67.85;99654.03;4450430;32;20155;-75
2023/12/26 05:36:28;;;;;;;15.27;9.18;;;;;;;6.35;68.14;99656.44;4436103;32;20452;-75
2023/12/26 05:38:58;;;;;;;14.93;8.30;;;;;;;6.21;68.60;99654.56;4450242;32;20500;-75
2023/12/26 05:41:27;;;;;;;15.10;9.55;;;;;;;6.30;67.96;99658.50;4423089;32;20196;-75
2023/12/26 05:43:58;;;;;;;12.63;10.20;;;;;;;6.23;67.59;99662.38;4434790;32;20144;-75
2023/12/26 05:46:29;;;;;;;13.77;11.35;;;;;;;5.96;68.71;99652.44;4434589;32;20172;-75
2023/12/26 05:48:59;;;;;;;;;;;;;;;6.09;68.78;99655.22;4435076;32;20156;-75
2023/12/26 05:51:30;;;;;;;13.07;10.90;;;;;;;5.68;69.47;99656.50;4420426;32;20335;-75
2023/12/26 05:54:04;;;;;;;11.12;9.93;;;;;;;5.89;69.42;99656.28;4434739;32;20430;-75
2023/12/26 05:56:33;;;;;;;19.30;11.23;;;;;;;5.87;69.63;99650.28;4449678;32;20520;-75
2023/12/26 05:59:02;;;;;;;19.20;11.00;;;;;;;5.61;70.40;99641.97;4449987;32;20160;-75
2023/12/26 06:01:32;;;;;;;17.62;9.75;;;;;;;5.45;70.63;99632.38;4451304;32;20156;-75
2023/12/26 06:04:02;;;;;;;13.90;9.20;;;;;;;5.55;70.38;99636.22;4452213;32;20152;-75
2023/12/26 06:06:32;;;;;;;18.27;10.38;;;;;;;5.94;68.99;99643.78;4452158;32;20156;-75
2023/12/26 06:09:01;;;;;;;15.10;10.07;;;;;;;5.88;69.28;99641.44;4452093;32;20141;-75
2023/12/26 06:11:35;;;;;;;13.85;10.63;;;;;;;5.78;69.86;99648.13;4452403;32;20168;-75
2023/12/26 06:14:05;;;;;;;16.37;9.88;;;;;;;5.51;71.06;99656.56;4452153;32;20159;-75
2023/12/26 06:16:35;;;;;;;21.37;10.60;;;;;;;5.57;71.31;99658.00;4452220;32;20168;-75
2023/12/26 06:19:05;;;;;;;17.73;11.68;;;;;;;5.54;71.21;99651.13;4451923;32;20164;-75
2023/12/26 06:21:36;;;;;;;12.95;11.30;;;;;;;5.57;71.81;99653.59;4452233;32;20171;-75
2023/12/26 06:24:05;;;;;;;13.98;10.75;;;;;;;5.73;71.20;99653.62;4452021;32;20160;-75
2023/12/26 06:26:35;;;;;;;15.55;9.93;;;;;;;5.50;72.58;99660.09;4452276;32;20163;-75
2023/12/26 06:29:05;;;;;;;13.45;11.32;;;;;;;5.77;71.47;99654.31;4451854;32;20151;-75
2023/12/26 06:31:34;;;;;;;14.02;10.90;;;;;;;5.85;71.01;99652.13;4451902;32;20171;-75
2023/12/26 06:34:04;;;;;;;18.75;10.75;;;;;;;5.90;71.03;99658.84;4437946;32;20461;-75
2023/12/26 06:36:33;;;;;;;19.70;11.82;;;;;;;5.97;70.72;99654.12;4451752;32;20166;-75
2023/12/26 06:39:04;;;;;;;14.10;11.12;;;;;;;6.08;70.09;99670.16;4451900;32;20523;-75
2023/12/26 06:41:33;;;;;;;12.40;10.45;;;;;;;6.00;70.09;99658.37;4452205;32;20183;-75
2023/12/26 06:44:03;;;;;;;17.08;10.73;;;;;;;6.42;68.12;99649.06;4451708;32;20164;-75
2023/12/26 06:46:34;;;;;;;13.32;9.77;;;;;;;6.21;68.40;99653.72;4451673;32;20159;-75
2023/12/26 06:49:04;;;;;;;16.25;11.43;;;;;;;6.08;68.67;99653.53;4451730;32;20164;-75
2023/12/26 06:51:41;;;;;;;14.93;11.10;;;;;;;6.07;69.53;99660.59;4451670;32;20152;-75
2023/12/26 06:54:12;;;;;;;22.35;11.00;;;;;;;6.30;69.71;99669.84;4451825;32;20167;-75
2023/12/26 06:56:41;;;;;;;18.95;9.43;;;;;;;6.43;69.50;99677.91;4452061;32;20179;-75
2023/12/26 06:59:11;;;;;;;25.45;11.30;;;;;;;6.50;68.08;99666.13;4451747;32;20460;-75
2023/12/26 07:01:46;;;;;;;15.23;10.65;;;;;;;6.45;67.66;99673.41;4451553;32;20516;-75
2023/12/26 07:04:15;;;;;;;11.50;8.48;;;;;;;6.24;68.33;99691.22;4451705;32;20160;-75
2023/12/26 07:06:44;;;;;;;14.02;9.93;;;;;;;6.27;68.00;99695.50;4451397;32;20156;-75
2023/12/26 07:09:15;;;;;;;13.98;10.00;;;;;;;6.31;67.77;99692.59;4451607;32;20168;-75
2023/12/26 07:11:44;;;;;;;22.98;12.05;;;;;;;6.37;67.42;99697.53;4451638;32;20179;-75
2023/12/26 07:14:14;;;;;;;15.18;10.95;;;;;;;6.37;67.69;99691.41;4451630;32;20179;-75
2023/12/26 07:16:43;;;;;;;15.57;11.77;;;;;;;6.38;67.72;99687.84;4451638;32;20523;-75
2023/12/26 07:19:16;;;;;;;17.25;11.52;;;;;;;6.35;67.97;99703.81;4451517;32;20152;-75
2023/12/26 07:21:45;;;;;;;19.17;11.07;;;;;;;6.31;67.85;99710.16;4451499;32;20175;-75
2023/12/26 07:24:15;;;;;;;17.17;10.07;;;;;;;6.12;68.67;99712.94;4451522;32;20504;-75
2023/12/26 07:26:45;;;;;;;18.37;11.50;;;;;;;6.13;68.90;99717.25;4451841;32;20148;-75
2023/12/26 07:29:15;;;;;;;17.65;11.40;;;;;;;6.07;69.44;99710.56;4451531;32;20156;-75
2023/12/26 07:31:44;;;;;;;15.02;10.98;;;;;;;6.01;69.77;99713.50;4451602;32;20191;-75
2023/12/26 07:34:13;;;;;;;23.12;15.07;;;;;;;6.25;69.04;99727.13;4451606;32;20167;-75
2023/12/26 07:36:46;;;;;;;20.27;15.55;;;;;;;6.07;69.23;99723.72;4451414;32;20156;-75
2023/12/26 07:39:19;;;;;;;19.33;12.15;;;;;;;5.85;70.35;99723.97;4451511;32;20167;-75
2023/12/26 07:41:48;;;;;;;17.65;11.88;;;;;;;6.03;70.43;99721.34;4451960;32;20439;-75
2023/12/26 07:44:17;;;;;;;20.00;12.13;;;;;;;5.99;70.89;99720.66;4451542;32;20173;-75
2023/12/26 07:46:46;;;;;;;21.08;12.00;;;;;;;6.29;70.33;99726.03;4451686;32;20144;-75
2023/12/26 07:49:16;;;;;;;18.77;11.10;;;;;;;6.39;70.37;99723.75;4451498;32;20435;-75
2023/12/26 07:51:45;;;;;;;19.35;11.10;;;;;;;6.25;72.06;99723.66;4451392;32;20160;-75
2023/12/26 07:54:15;;;;;;;19.45;12.25;;;;;;;7.11;70.90;99717.91;4451118;32;20449;-75
2023/12/26 07:56:46;;;;;;;16.73;10.57;;;;;;;7.77;69.82;99724.56;4451809;32;20148;-76
2023/12/26 07:59:15;;;;;;;14.75;11.52;;;;;;;8.47;67.61;99722.00;4451320;32;20164;-75
2023/12/26 08:01:45;;;;;;;19.23;11.35;;;;;;;9.31;64.47;99710.38;4451298;32;20159;-75
2023/12/26 08:04:14;;;;;;;16.58;11.90;;;;;;;10.05;61.15;99709.66;4451330;32;20168;-75
2023/12/26 08:06:43;;;;;;;17.52;11.38;;;;;;;10.77;58.81;99701.91;4451324;32;20235;-75
2023/12/26 08:09:13;;;;;;;17.40;11.48;;;;;;;11.88;57.32;99701.53;4451231;32;20163;-75
2023/12/26 08:11:47;;;;;;;15.88;9.32;;;;;;;12.76;52.71;99696.28;4451514;32;20156;-76
2023/12/26 08:14:17;;;;;;;12.98;9.20;;;;;;;13.61;49.78;99704.28;4450948;32;20540;-76
2023/12/26 08:16:49;;;;;;;13.60;7.53;;;;;;;14.47;47.58;99704.81;4451278;32;20171;-76
2023/12/26 08:19:17;;;;;;;8.35;7.30;;;;;;;15.49;45.92;99689.34;4451262;32;20167;-76
2023/12/26 08:21:49;;;;;;;14.15;7.80;;;;;;;16.46;43.86;99703.25;4451035;32;20153;-76
2023/12/26 08:24:18;;;;;;;11.65;8.95;;;;;;;16.92;41.84;99696.13;4449942;32;20149;-76
2023/12/26 08:26:54;;;;;;;12.00;8.93;;;;;;;17.59;41.17;99688.50;4436980;32;20129;-76
2023/12/26 08:29:24;;;;;;;14.35;7.68;;;;;;;18.41;39.38;99697.00;4450817;32;20164;-76
2023/12/26 08:31:56;;;;;;;14.38;9.00;;;;;;;19.07;38.96;99696.22;4451135;32;20172;-76
2023/12/26 08:34:33;;;;;;;12.57;8.35;;;;;;;19.53;37.33;99687.69;4451066;32;20168;-76
2023/12/26 08:37:03;;;;;;;13.75;8.35;;;;;;;19.97;36.56;99674.72;4451218;32;20516;-76
2023/12/26 08:39:33;;;;;;;15.27;8.80;;;;;;;20.48;35.44;99683.25;4450978;32;20546;-76
2023/12/26 08:42:04;;;;;;;8.85;7.12;;;;;;;20.75;34.70;99673.06;4450846;32;20210;-76
2023/12/26 08:44:33;;;;;;;9.27;6.35;;;;;;;20.88;33.97;99659.84;4451269;32;20429;-76
2023/12/26 08:47:04;;;;;;;11.27;7.35;;;;;;;21.14;33.90;99654.09;4450909;32;20171;-76
2023/12/26 08:49:37;;;;;;;9.53;8.00;;;;;;;21.25;33.68;99648.28;4450892;32;20322;-76
2023/12/26 08:52:07;;;;;;;11.55;8.80;;;;;;;21.33;33.64;99660.88;4450979;32;20260;-76
2023/12/26 08:54:36;;;;;;;11.12;8.45;;;;;;;21.61;33.54;99661.97;4450765;32;20453;-76
2023/12/26 08:57:07;;;;;;;17.58;8.13;;;;;;;21.78;32.79;99648.34;4450936;32;20152;-76
2023/12/26 08:59:37;;;;;;;19.95;8.55;;;;;;;21.93;33.24;99657.25;4451181;32;20155;-76
2023/12/26 09:02:07;;;;;;;11.90;7.05;;;;;;;21.82;33.36;99663.13;4450872;32;20163;-76
2023/12/26 09:04:39;;;;;;;11.50;7.32;;;;;;;21.30;34.13;99671.97;4451069;32;20163;-76
2023/12/26 09:07:08;;;;;;;15.63;7.18;;;;;;;21.08;34.95;99668.28;4450852;32;20160;-76
2023/12/26 09:09:37;;;;;;;13.45;5.62;;;;;;;21.28;34.71;99672.19;4450716;32;20213;-76
2023/12/26 09:12:08;;;;;;;12.80;5.90;;;;;;;20.89;35.42;99680.37;4451814;32;20235;-76
2023/12/26 09:14:41;;;;;;;10.65;4.22;;;;;;;20.70;35.69;99675.44;4451328;32;20148;-76
2023/12/26 09:17:10;;;;;;;10.63;5.37;;;;;;;19.99;37.13;99677.22;4450603;32;20168;-76
2023/12/26 09:19:45;;;;;;;8.27;4.32;;;;;;;19.91;37.12;99670.00;4450667;32;20433;-76
2023/12/26 09:22:14;;;;;;;12.77;4.65;;;;;;;19.82;37.49;99679.94;4450581;32;20167;-76
2023/12/26 09:24:50;;;;;;;8.90;5.07;;;;;;;20.11;37.05;99673.13;4436311;32;20763;-76
2023/12/26 09:27:21;;;;;;;8.40;3.80;;;;;;;20.47;37.13;99675.34;4451099;32;20171;-75
2023/12/26 09:29:50;;;;;;;9.95;3.85;;;;;;;20.54;36.31;99684.44;4450344;32;20160;-75
2023/12/26 09:32:19;;;;;;;8.85;4.35;;;;;;;20.08;36.89;99695.03;4451261;32;20775;-76
2023/12/26 09:34:48;;;;;;;10.88;5.15;;;;;;;19.60;37.46;99689.53;4451103;32;20191;-76
2023/12/26 09:37:18;;;;;;;10.80;4.12;;;;;;;19.01;38.56;99709.50;4452351;32;20152;-76
2023/12/26 09:39:46;;;;;;;11.55;5.00;;;;;;;18.57;39.79;99713.19;4452158;32;20151;-75
2023/12/26 09:42:21;;;;;;;11.23;5.75;;;;;;;17.98;41.41;99714.09;4452097;32;20152;-76
2023/12/26 09:44:56;;;;;;;12.98;5.40;;;;;;;17.41;42.80;99725.16;4452227;32;20195;-76
2023/12/26 09:47:26;;;;;;;9.45;5.82;;;;;;;16.77;43.98;99727.06;4452327;32;20163;-75
2023/12/26 09:49:56;;;;;;;15.73;8.27;;;;;;;16.41;44.68;99726.09;4452049;32;20163;-75
2023/12/26 09:52:26;;;;;;;16.60;10.55;;;;;;;15.99;45.95;99727.34;4452208;32;20156;-75
2023/12/26 09:54:57;;;;;;;14.75;9.85;;;;;;;15.44;47.28;99724.50;4452175;32;20467;-75
2023/12/26 09:57:29;;;;;;;15.98;10.95;;;;;;;15.10;48.11;99731.22;4452027;32;20176;-75
2023/12/26 10:00:00;;;;;;;17.65;12.90;;;;;;;14.89;48.53;99726.84;4452059;32;20136;-75
2023/12/26 10:02:42;;;;;;;17.40;11.98;;;;;;;14.65;49.24;99737.03;4452557;32;20163;-75
2023/12/26 10:05:12;;;;;;;;;;;;;;;14.09;50.45;99734.81;4452452;32;20147;-75
2023/12/26 10:07:41;;;;;;;19.62;11.90;;;;;;;13.77;51.32;99736.59;4452094;32;20032;-75
2023/12/26 10:10:11;;;;;;;19.42;11.35;;;;;;;13.30;52.54;99735.28;4451917;32;20168;-75
2023/12/26 10:12:41;;;;;;;19.10;9.40;;;;;;;13.01;53.57;99735.84;4451997;32;20164;-75
2023/12/26 10:15:11;;;;;;;20.80;10.63;;;;;;;12.83;54.08;99724.06;4452069;32;20236;-75
2023/12/26 10:17:42;;;;;;;23.62;13.20;;;;;;;12.51;55.19;99729.28;4452457;32;20156;-75
2023/12/26 10:20:12;;;;;;;31.83;20.12;;;;;;;12.50;55.43;99738.25;4451934;32;20156;-75
2023/12/26 10:22:43;;;;;;;19.08;14.02;;;;;;;12.57;55.35;99726.16;4452128;32;20520;-76
2023/12/26 10:25:13;;;;;;;12.60;9.02;;;;;;;12.42;55.72;99717.59;4452033;32;20159;-75
2023/12/26 10:27:54;;;;;;;17.15;8.45;;;;;;;12.07;57.04;99717.72;4451917;32;20168;-75
2023/12/26 10:30:25;;;;;;;27.52;15.07;;;;;;;11.89;57.86;99713.88;4451787;32;20172;-75
2023/12/26 10:33:01;;;;;;;27.40;20.93;;;;;;;11.95;57.62;99710.72;4452186;32;20171;-75
2023/12/26 10:35:33;;;;;;;19.73;14.35;;;;;;;11.97;57.58;99693.72;4452267;32;20639;-75
2023/12/26 10:38:05;;;;;;;16.92;10.48;;;;;;;11.96;57.89;99696.50;4451926;32;20536;-75
2023/12/26 10:40:34;;;;;;;21.17;12.43;;;;;;;11.86;58.33;99699.00;4451773;32;20167;-75
2023/12/26 10:43:05;;;;;;;17.52;14.70;;;;;;;11.98;58.42;99695.41;4451891;32;20449;-75
2023/12/26 10:45:35;;;;;;;25.37;16.25;;;;;;;12.06;58.15;99703.59;4451521;32;20736;-75
2023/12/26 10:48:10;;;;;;;16.48;14.32;;;;;;;12.01;58.36;99704.94;4451606;32;20164;-75
2023/12/26 10:50:40;;;;;;;22.42;13.48;;;;;;;12.10;58.20;99708.69;4452170;32;20164;-75
2023/12/26 10:53:19;;;;;;;19.73;10.23;;;;;;;12.03;58.62;99698.53;4451790;32;20179;-75
2023/12/26 10:55:50;;;;;;;16.83;9.90;;;;;;;12.39;57.59;99699.22;4451540;32;20167;-75
2023/12/26 10:58:23;;;;;;;21.70;12.07;;;;;;;12.36;57.59;99688.87;4437191;32;20172;-75
2023/12/26 11:00:53;;;;;;;16.08;11.38;;;;;;;12.17;58.24;99693.97;4452014;32;20155;-75
2023/12/26 11:03:22;;;;;;;21.12;11.52;;;;;;;12.11;58.38;99687.31;4451787;32;20539;-75
2023/12/26 11:05:51;;;;;;;24.92;17.70;;;;;;;12.04;58.75;99689.63;4452155;32;20163;-75
2023/12/26 11:08:27;;;;;;;23.35;18.15;;;;;;;12.17;58.74;99688.66;4451949;32;20195;-75
2023/12/26 11:10:56;;;;;;;18.52;15.00;;;;;;;12.17;58.33;99691.31;4451268;32;20187;-75
2023/12/26 11:13:25;;;;;;;21.50;10.95;;;;;;;12.17;58.24;99700.12;4451916;32;20191;-75
2023/12/26 11:15:57;;;;;;;24.08;14.18;;;;;;;12.27;57.96;99701.09;4451595;32;20156;-75
2023/12/26 11:18:27;;;;;;;18.58;11.88;;;;;;;11.92;58.79;99697.69;4451674;32;20189;-75
2023/12/26 11:20:56;;;;;;;18.83;11.12;;;;;;;11.82;59.51;99687.75;4451694;32;20167;-75
2023/12/26 11:23:29;;;;;;;16.45;11.50;;;;;;;11.90;59.76;99689.84;4452004;32;20163;-75
2023/12/26 11:25:58;;;;;;;23.87;14.45;;;;;;;12.34;59.36;99672.19;4451436;32;20160;-75
2023/12/26 11:28:27;;;;;;;28.70;16.62;;;;;;;12.52;58.24;99676.03;4451526;32;20152;-76
2023/12/26 11:30:59;;;;;;;18.48;12.07;;;;;;;13.07;56.51;99676.00;4451562;32;20559;-75
2023/12/26 11:33:30;;;;;;;17.73;11.60;;;;;;;13.01;56.21;99703.09;4451494;32;20186;-75
2023/12/26 11:35:59;;;;;;;17.30;13.77;;;;;;;12.86;56.57;99686.56;4451421;32;20157;-75
2023/12/26 11:38:28;;;;;;;21.40;12.80;;;;;;;12.98;56.19;99672.25;4437181;32;20172;-75
2023/12/26 11:40:57;;;;;;;19.87;12.75;;;;;;;13.16;55.93;99677.03;4451088;32;20534;-75